sensor_id;sensor_type;location;lat;lon;timestamp;P1;durP1;ratioP1;P2;durP2;ratioP2
75048;SDS011;63803;53.120;8.764;2022-10-22T00:00:11;4.50;;;3.25;;
75048;SDS011;63803;53.120;8.764;2022-10-22T00:02:40;4.93;;;3.20;;
75048;SDS011;63803;53.120;8.764;2022-10-22T00:05:06;5.55;;;3.50;;
75048;SDS011;63803;53.120;8.764;2022-10-22T00:07:32;4.75;;;2.88;;
75048;SDS011;63803;53.120;8.764;2022-10-22T00:09:58;5.65;;;2.95;;
75048;SDS011;63803;53.120;8.764;2022-10-22T00:12:25;8.48;;;3.30;;
75048;SDS011;63803;53.120;8.764;2022-10-22T00:14:51;5.40;;;3.13;;
75048;SDS011;63803;53.120;8.764;2022-10-22T00:17:17;4.90;;;3.17;;
75048;SDS011;63803;53.120;8.764;2022-10-22T00:19:42;4.75;;;3.15;;
75048;SDS011;63803;53.120;8.764;2022-10-22T00:22:09;4.18;;;3.10;;
75048;SDS011;63803;53.120;8.764;2022-10-22T00:24:36;4.47;;;2.88;;
75048;SDS011;63803;53.120;8.764;2022-10-22T00:27:03;5.63;;;2.92;;
75048;SDS011;63803;53.120;8.764;2022-10-22T00:29:30;3.65;;;2.80;;
75048;SDS011;63803;53.120;8.764;2022-10-22T00:31:56;4.13;;;2.97;;
75048;SDS011;63803;53.120;8.764;2022-10-22T00:34:22;4.15;;;3.35;;
75048;SDS011;63803;53.120;8.764;2022-10-22T00:36:48;4.20;;;2.95;;
75048;SDS011;63803;53.120;8.764;2022-10-22T00:39:15;3.50;;;2.88;;
75048;SDS011;63803;53.120;8.764;2022-10-22T00:41:43;3.58;;;3.13;;
75048;SDS011;63803;53.120;8.764;2022-10-22T00:47:13;5.18;;;2.92;;
75048;SDS011;63803;53.120;8.764;2022-10-22T00:49:41;4.10;;;2.90;;
75048;SDS011;63803;53.120;8.764;2022-10-22T00:52:07;4.68;;;2.70;;
75048;SDS011;63803;53.120;8.764;2022-10-22T00:54:33;3.20;;;2.80;;
75048;SDS011;63803;53.120;8.764;2022-10-22T00:56:59;3.50;;;3.20;;
75048;SDS011;63803;53.120;8.764;2022-10-22T00:59:26;4.28;;;3.05;;
75048;SDS011;63803;53.120;8.764;2022-10-22T01:01:53;6.90;;;3.20;;
75048;SDS011;63803;53.120;8.764;2022-10-22T01:04:19;3.72;;;2.58;;
75048;SDS011;63803;53.120;8.764;2022-10-22T01:06:45;5.00;;;3.13;;
75048;SDS011;63803;53.120;8.764;2022-10-22T01:12:14;4.28;;;3.10;;
75048;SDS011;63803;53.120;8.764;2022-10-22T01:29:00;3.97;;;2.95;;
75048;SDS011;63803;53.120;8.764;2022-10-22T01:31:43;3.15;;;2.70;;
75048;SDS011;63803;53.120;8.764;2022-10-22T01:34:15;6.10;;;2.88;;
75048;SDS011;63803;53.120;8.764;2022-10-22T01:36:42;4.07;;;2.75;;
75048;SDS011;63803;53.120;8.764;2022-10-22T01:39:10;4.35;;;3.10;;
75048;SDS011;63803;53.120;8.764;2022-10-22T01:41:38;3.55;;;2.90;;
75048;SDS011;63803;53.120;8.764;2022-10-22T01:44:20;5.43;;;3.35;;
75048;SDS011;63803;53.120;8.764;2022-10-22T02:00:56;3.33;;;2.63;;
75048;SDS011;63803;53.120;8.764;2022-10-22T02:03:31;3.33;;;2.83;;
75048;SDS011;63803;53.120;8.764;2022-10-22T02:06:11;2.77;;;2.50;;
75048;SDS011;63803;53.120;8.764;2022-10-22T02:08:41;4.32;;;3.20;;
75048;SDS011;63803;53.120;8.764;2022-10-22T02:11:10;3.63;;;2.97;;
75048;SDS011;63803;53.120;8.764;2022-10-22T02:13:48;3.58;;;2.70;;
75048;SDS011;63803;53.120;8.764;2022-10-22T02:16:30;3.78;;;2.90;;
75048;SDS011;63803;53.120;8.764;2022-10-22T02:19:00;3.10;;;2.80;;
75048;SDS011;63803;53.120;8.764;2022-10-22T02:21:30;4.32;;;2.78;;
75048;SDS011;63803;53.120;8.764;2022-10-22T02:23:56;5.43;;;3.35;;
75048;SDS011;63803;53.120;8.764;2022-10-22T02:26:24;4.55;;;3.05;;
75048;SDS011;63803;53.120;8.764;2022-10-22T02:29:02;4.47;;;3.20;;
75048;SDS011;63803;53.120;8.764;2022-10-22T02:31:49;3.72;;;2.65;;
75048;SDS011;63803;53.120;8.764;2022-10-22T02:34:18;8.27;;;2.92;;
75048;SDS011;63803;53.120;8.764;2022-10-22T02:36:48;3.15;;;2.78;;
75048;SDS011;63803;53.120;8.764;2022-10-22T02:39:15;3.92;;;2.85;;
75048;SDS011;63803;53.120;8.764;2022-10-22T02:41:42;3.30;;;2.80;;
75048;SDS011;63803;53.120;8.764;2022-10-22T02:44:08;3.10;;;2.60;;
75048;SDS011;63803;53.120;8.764;2022-10-22T02:46:35;4.57;;;2.55;;
75048;SDS011;63803;53.120;8.764;2022-10-22T02:49:02;3.72;;;2.80;;
75048;SDS011;63803;53.120;8.764;2022-10-22T02:51:28;3.80;;;2.80;;
75048;SDS011;63803;53.120;8.764;2022-10-22T02:53:54;4.05;;;2.80;;
75048;SDS011;63803;53.120;8.764;2022-10-22T02:56:20;3.38;;;2.80;;
75048;SDS011;63803;53.120;8.764;2022-10-22T02:58:45;2.95;;;2.50;;
75048;SDS011;63803;53.120;8.764;2022-10-22T03:01:11;3.15;;;2.45;;
75048;SDS011;63803;53.120;8.764;2022-10-22T03:03:37;3.15;;;2.65;;
75048;SDS011;63803;53.120;8.764;2022-10-22T03:06:03;4.20;;;2.85;;
75048;SDS011;63803;53.120;8.764;2022-10-22T03:08:29;8.55;;;2.38;;
75048;SDS011;63803;53.120;8.764;2022-10-22T03:10:54;4.38;;;2.97;;
75048;SDS011;63803;53.120;8.764;2022-10-22T03:13:20;4.45;;;2.80;;
75048;SDS011;63803;53.120;8.764;2022-10-22T03:15:49;2.83;;;2.55;;
75048;SDS011;63803;53.120;8.764;2022-10-22T03:18:15;8.02;;;2.65;;
75048;SDS011;63803;53.120;8.764;2022-10-22T03:20:42;3.53;;;2.78;;
75048;SDS011;63803;53.120;8.764;2022-10-22T03:23:08;3.47;;;2.80;;
75048;SDS011;63803;53.120;8.764;2022-10-22T03:25:35;4.32;;;2.85;;
75048;SDS011;63803;53.120;8.764;2022-10-22T03:28:04;3.10;;;2.63;;
75048;SDS011;63803;53.120;8.764;2022-10-22T03:30:32;4.35;;;2.60;;
75048;SDS011;63803;53.120;8.764;2022-10-22T03:32:58;3.40;;;2.70;;
75048;SDS011;63803;53.120;8.764;2022-10-22T03:35:24;4.53;;;2.70;;
75048;SDS011;63803;53.120;8.764;2022-10-22T03:37:50;4.35;;;2.58;;
75048;SDS011;63803;53.120;8.764;2022-10-22T03:40:16;5.32;;;3.03;;
75048;SDS011;63803;53.120;8.764;2022-10-22T03:42:42;4.00;;;2.92;;
75048;SDS011;63803;53.120;8.764;2022-10-22T03:45:08;4.30;;;3.00;;
75048;SDS011;63803;53.120;8.764;2022-10-22T03:47:35;3.00;;;2.70;;
75048;SDS011;63803;53.120;8.764;2022-10-22T03:50:01;7.57;;;2.97;;
75048;SDS011;63803;53.120;8.764;2022-10-22T03:52:28;7.82;;;2.95;;
75048;SDS011;63803;53.120;8.764;2022-10-22T03:54:59;3.40;;;2.72;;
75048;SDS011;63803;53.120;8.764;2022-10-22T03:57:25;3.55;;;2.90;;
75048;SDS011;63803;53.120;8.764;2022-10-22T03:59:50;2.95;;;2.50;;
75048;SDS011;63803;53.120;8.764;2022-10-22T04:02:16;5.30;;;2.67;;
75048;SDS011;63803;53.120;8.764;2022-10-22T04:04:42;4.53;;;2.95;;
75048;SDS011;63803;53.120;8.764;2022-10-22T04:07:08;2.90;;;2.58;;
75048;SDS011;63803;53.120;8.764;2022-10-22T04:09:34;5.47;;;3.03;;
75048;SDS011;63803;53.120;8.764;2022-10-22T04:12:00;3.30;;;2.55;;
75048;SDS011;63803;53.120;8.764;2022-10-22T04:14:26;3.35;;;2.38;;
75048;SDS011;63803;53.120;8.764;2022-10-22T04:16:52;4.05;;;2.92;;
75048;SDS011;63803;53.120;8.764;2022-10-22T04:19:18;2.50;;;2.30;;
75048;SDS011;63803;53.120;8.764;2022-10-22T04:21:44;5.60;;;2.63;;
75048;SDS011;63803;53.120;8.764;2022-10-22T04:24:12;3.67;;;2.47;;
75048;SDS011;63803;53.120;8.764;2022-10-22T04:26:38;3.33;;;2.70;;
75048;SDS011;63803;53.120;8.764;2022-10-22T04:29:05;2.80;;;2.60;;
75048;SDS011;63803;53.120;8.764;2022-10-22T04:31:31;3.53;;;2.90;;
75048;SDS011;63803;53.120;8.764;2022-10-22T04:33:58;2.92;;;2.55;;
75048;SDS011;63803;53.120;8.764;2022-10-22T04:36:25;3.33;;;2.60;;
75048;SDS011;63803;53.120;8.764;2022-10-22T04:38:56;2.92;;;2.30;;
75048;SDS011;63803;53.120;8.764;2022-10-22T04:41:24;3.03;;;2.30;;
75048;SDS011;63803;53.120;8.764;2022-10-22T04:43:52;2.83;;;2.60;;
75048;SDS011;63803;53.120;8.764;2022-10-22T04:46:18;2.53;;;2.22;;
75048;SDS011;63803;53.120;8.764;2022-10-22T04:48:45;4.97;;;2.60;;
75048;SDS011;63803;53.120;8.764;2022-10-22T04:51:12;3.33;;;2.55;;
75048;SDS011;63803;53.120;8.764;2022-10-22T04:53:40;2.72;;;2.45;;
75048;SDS011;63803;53.120;8.764;2022-10-22T04:58:35;3.08;;;2.60;;
75048;SDS011;63803;53.120;8.764;2022-10-22T05:01:09;2.75;;;2.40;;
75048;SDS011;63803;53.120;8.764;2022-10-22T05:03:39;3.90;;;2.22;;
75048;SDS011;63803;53.120;8.764;2022-10-22T05:06:06;2.55;;;2.35;;
75048;SDS011;63803;53.120;8.764;2022-10-22T05:08:32;2.42;;;2.22;;
75048;SDS011;63803;53.120;8.764;2022-10-22T05:10:58;2.55;;;2.35;;
75048;SDS011;63803;53.120;8.764;2022-10-22T05:13:24;4.50;;;2.50;;
75048;SDS011;63803;53.120;8.764;2022-10-22T05:15:50;3.17;;;2.40;;
75048;SDS011;63803;53.120;8.764;2022-10-22T05:18:16;3.35;;;2.60;;
75048;SDS011;63803;53.120;8.764;2022-10-22T05:20:42;3.17;;;2.50;;
75048;SDS011;63803;53.120;8.764;2022-10-22T05:23:07;3.17;;;2.50;;
75048;SDS011;63803;53.120;8.764;2022-10-22T05:25:37;3.22;;;2.67;;
75048;SDS011;63803;53.120;8.764;2022-10-22T05:28:03;3.90;;;2.63;;
75048;SDS011;63803;53.120;8.764;2022-10-22T05:30:29;2.50;;;2.30;;
75048;SDS011;63803;53.120;8.764;2022-10-22T05:32:55;2.58;;;2.17;;
75048;SDS011;63803;53.120;8.764;2022-10-22T05:35:21;4.00;;;2.40;;
75048;SDS011;63803;53.120;8.764;2022-10-22T05:37:46;2.60;;;2.38;;
75048;SDS011;63803;53.120;8.764;2022-10-22T05:40:12;5.82;;;2.50;;
75048;SDS011;63803;53.120;8.764;2022-10-22T05:42:38;4.45;;;2.55;;
75048;SDS011;63803;53.120;8.764;2022-10-22T05:45:04;2.58;;;2.28;;
75048;SDS011;63803;53.120;8.764;2022-10-22T05:47:30;2.97;;;2.35;;
75048;SDS011;63803;53.120;8.764;2022-10-22T05:49:56;2.53;;;2.33;;
75048;SDS011;63803;53.120;8.764;2022-10-22T05:52:22;3.47;;;2.10;;
75048;SDS011;63803;53.120;8.764;2022-10-22T05:54:48;2.75;;;2.47;;
75048;SDS011;63803;53.120;8.764;2022-10-22T05:57:14;6.45;;;3.45;;
75048;SDS011;63803;53.120;8.764;2022-10-22T05:59:40;2.60;;;2.10;;
75048;SDS011;63803;53.120;8.764;2022-10-22T06:02:07;2.60;;;2.40;;
75048;SDS011;63803;53.120;8.764;2022-10-22T06:04:34;3.92;;;2.42;;
75048;SDS011;63803;53.120;8.764;2022-10-22T06:06:59;2.85;;;2.15;;
75048;SDS011;63803;53.120;8.764;2022-10-22T06:09:27;4.40;;;2.58;;
75048;SDS011;63803;53.120;8.764;2022-10-22T06:11:55;2.80;;;2.60;;
75048;SDS011;63803;53.120;8.764;2022-10-22T06:14:22;3.17;;;2.45;;
75048;SDS011;63803;53.120;8.764;2022-10-22T06:16:49;3.03;;;2.47;;
75048;SDS011;63803;53.120;8.764;2022-10-22T06:19:16;2.50;;;2.30;;
75048;SDS011;63803;53.120;8.764;2022-10-22T06:21:44;6.57;;;2.10;;
75048;SDS011;63803;53.120;8.764;2022-10-22T06:24:10;5.50;;;2.50;;
75048;SDS011;63803;53.120;8.764;2022-10-22T06:26:36;3.17;;;2.60;;
75048;SDS011;63803;53.120;8.764;2022-10-22T06:29:02;2.83;;;2.38;;
75048;SDS011;63803;53.120;8.764;2022-10-22T06:31:28;3.45;;;2.25;;
75048;SDS011;63803;53.120;8.764;2022-10-22T06:34:04;3.45;;;2.50;;
75048;SDS011;63803;53.120;8.764;2022-10-22T06:36:31;2.65;;;2.45;;
75048;SDS011;63803;53.120;8.764;2022-10-22T06:38:57;3.38;;;2.30;;
75048;SDS011;63803;53.120;8.764;2022-10-22T06:41:23;3.80;;;2.22;;
75048;SDS011;63803;53.120;8.764;2022-10-22T06:43:49;2.30;;;2.10;;
75048;SDS011;63803;53.120;8.764;2022-10-22T06:46:16;2.50;;;2.30;;
75048;SDS011;63803;53.120;8.764;2022-10-22T06:48:50;3.50;;;2.17;;
75048;SDS011;63803;53.120;8.764;2022-10-22T06:51:21;2.85;;;2.13;;
75048;SDS011;63803;53.120;8.764;2022-10-22T06:53:47;2.38;;;2.17;;
75048;SDS011;63803;53.120;8.764;2022-10-22T06:56:19;2.97;;;2.30;;
75048;SDS011;63803;53.120;8.764;2022-10-22T06:58:50;4.03;;;2.20;;
75048;SDS011;63803;53.120;8.764;2022-10-22T07:01:18;2.20;;;2.00;;
75048;SDS011;63803;53.120;8.764;2022-10-22T07:03:45;3.92;;;2.30;;
75048;SDS011;63803;53.120;8.764;2022-10-22T07:06:12;3.40;;;2.40;;
75048;SDS011;63803;53.120;8.764;2022-10-22T07:08:39;6.35;;;2.40;;
75048;SDS011;63803;53.120;8.764;2022-10-22T07:11:09;2.38;;;2.17;;
75048;SDS011;63803;53.120;8.764;2022-10-22T07:13:37;3.00;;;2.33;;
75048;SDS011;63803;53.120;8.764;2022-10-22T07:16:04;7.28;;;2.22;;
75048;SDS011;63803;53.120;8.764;2022-10-22T07:18:30;2.45;;;2.25;;
75048;SDS011;63803;53.120;8.764;2022-10-22T07:20:57;3.58;;;2.60;;
75048;SDS011;63803;53.120;8.764;2022-10-22T07:23:24;3.35;;;2.35;;
75048;SDS011;63803;53.120;8.764;2022-10-22T07:25:50;3.25;;;2.35;;
75048;SDS011;63803;53.120;8.764;2022-10-22T07:28:16;3.75;;;2.70;;
75048;SDS011;63803;53.120;8.764;2022-10-22T07:30:42;2.75;;;2.38;;
75048;SDS011;63803;53.120;8.764;2022-10-22T07:33:08;3.35;;;2.35;;
75048;SDS011;63803;53.120;8.764;2022-10-22T07:35:35;2.72;;;2.35;;
75048;SDS011;63803;53.120;8.764;2022-10-22T07:38:02;3.17;;;2.55;;
75048;SDS011;63803;53.120;8.764;2022-10-22T07:40:28;3.85;;;2.60;;
75048;SDS011;63803;53.120;8.764;2022-10-22T07:42:54;3.03;;;2.28;;
75048;SDS011;63803;53.120;8.764;2022-10-22T07:45:19;2.55;;;2.35;;
75048;SDS011;63803;53.120;8.764;2022-10-22T07:47:46;3.35;;;2.20;;
75048;SDS011;63803;53.120;8.764;2022-10-22T07:50:12;2.40;;;2.20;;
75048;SDS011;63803;53.120;8.764;2022-10-22T07:52:38;2.78;;;2.10;;
75048;SDS011;63803;53.120;8.764;2022-10-22T07:55:04;4.72;;;2.40;;
75048;SDS011;63803;53.120;8.764;2022-10-22T07:57:30;2.83;;;2.40;;
75048;SDS011;63803;53.120;8.764;2022-10-22T07:59:56;4.28;;;2.10;;
75048;SDS011;63803;53.120;8.764;2022-10-22T08:02:25;2.40;;;2.20;;
75048;SDS011;63803;53.120;8.764;2022-10-22T08:04:51;3.33;;;2.38;;
75048;SDS011;63803;53.120;8.764;2022-10-22T08:07:17;3.67;;;1.98;;
75048;SDS011;63803;53.120;8.764;2022-10-22T08:09:43;2.33;;;2.13;;
75048;SDS011;63803;53.120;8.764;2022-10-22T08:12:09;5.47;;;2.47;;
75048;SDS011;63803;53.120;8.764;2022-10-22T08:14:35;2.40;;;2.17;;
75048;SDS011;63803;53.120;8.764;2022-10-22T08:17:01;3.55;;;2.25;;
75048;SDS011;63803;53.120;8.764;2022-10-22T08:19:26;2.67;;;2.45;;
75048;SDS011;63803;53.120;8.764;2022-10-22T08:21:54;2.95;;;2.17;;
75048;SDS011;63803;53.120;8.764;2022-10-22T08:24:19;3.25;;;2.10;;
75048;SDS011;63803;53.120;8.764;2022-10-22T08:26:45;3.63;;;2.40;;
75048;SDS011;63803;53.120;8.764;2022-10-22T08:29:11;2.85;;;2.55;;
75048;SDS011;63803;53.120;8.764;2022-10-22T08:31:37;3.30;;;2.10;;
75048;SDS011;63803;53.120;8.764;2022-10-22T08:34:02;10.48;;;2.58;;
75048;SDS011;63803;53.120;8.764;2022-10-22T08:36:30;2.40;;;2.20;;
75048;SDS011;63803;53.120;8.764;2022-10-22T08:38:55;3.63;;;2.15;;
75048;SDS011;63803;53.120;8.764;2022-10-22T08:41:22;5.07;;;2.55;;
75048;SDS011;63803;53.120;8.764;2022-10-22T08:49:27;2.50;;;2.00;;
75048;SDS011;63803;53.120;8.764;2022-10-22T08:51:57;2.67;;;2.25;;
75048;SDS011;63803;53.120;8.764;2022-10-22T08:54:49;2.33;;;2.13;;
75048;SDS011;63803;53.120;8.764;2022-10-22T08:57:21;4.72;;;2.17;;
75048;SDS011;63803;53.120;8.764;2022-10-22T09:08:14;3.42;;;1.80;;
75048;SDS011;63803;53.120;8.764;2022-10-22T09:10:44;2.85;;;2.08;;
75048;SDS011;63803;53.120;8.764;2022-10-22T09:13:17;2.40;;;1.98;;
75048;SDS011;63803;53.120;8.764;2022-10-22T09:15:45;5.00;;;2.15;;
75048;SDS011;63803;53.120;8.764;2022-10-22T09:26:44;2.63;;;1.83;;
75048;SDS011;63803;53.120;8.764;2022-10-22T09:29:16;3.05;;;2.00;;
75048;SDS011;63803;53.120;8.764;2022-10-22T09:31:45;2.03;;;1.83;;
75048;SDS011;63803;53.120;8.764;2022-10-22T09:34:13;2.53;;;2.15;;
75048;SDS011;63803;53.120;8.764;2022-10-22T09:36:40;3.63;;;2.05;;
75048;SDS011;63803;53.120;8.764;2022-10-22T09:39:20;2.83;;;2.00;;
75048;SDS011;63803;53.120;8.764;2022-10-22T09:41:51;3.33;;;2.20;;
75048;SDS011;63803;53.120;8.764;2022-10-22T09:44:18;3.00;;;1.92;;
75048;SDS011;63803;53.120;8.764;2022-10-22T09:46:44;3.53;;;2.13;;
75048;SDS011;63803;53.120;8.764;2022-10-22T09:49:14;4.30;;;2.22;;
75048;SDS011;63803;53.120;8.764;2022-10-22T09:51:47;3.17;;;2.00;;
75048;SDS011;63803;53.120;8.764;2022-10-22T09:56:53;3.55;;;1.88;;
75048;SDS011;63803;53.120;8.764;2022-10-22T09:59:29;5.57;;;1.90;;
75048;SDS011;63803;53.120;8.764;2022-10-22T10:01:57;6.65;;;2.47;;
75048;SDS011;63803;53.120;8.764;2022-10-22T10:04:41;5.10;;;2.22;;
75048;SDS011;63803;53.120;8.764;2022-10-22T10:07:24;5.97;;;2.17;;
75048;SDS011;63803;53.120;8.764;2022-10-22T10:09:52;3.22;;;1.85;;
75048;SDS011;63803;53.120;8.764;2022-10-22T10:20:39;2.53;;;2.10;;
75048;SDS011;63803;53.120;8.764;2022-10-22T10:26:13;3.17;;;2.00;;
75048;SDS011;63803;53.120;8.764;2022-10-22T10:31:47;8.30;;;2.50;;
75048;SDS011;63803;53.120;8.764;2022-10-22T10:34:42;7.93;;;2.72;;
75048;SDS011;63803;53.120;8.764;2022-10-22T10:37:18;20.58;;;3.50;;
75048;SDS011;63803;53.120;8.764;2022-10-22T10:42:50;17.20;;;3.50;;
75048;SDS011;63803;53.120;8.764;2022-10-22T10:45:46;11.55;;;3.53;;
75048;SDS011;63803;53.120;8.764;2022-10-22T10:54:16;15.02;;;3.00;;
75048;SDS011;63803;53.120;8.764;2022-10-22T10:56:47;15.73;;;3.63;;
75048;SDS011;63803;53.120;8.764;2022-10-22T11:08:14;6.82;;;2.40;;
75048;SDS011;63803;53.120;8.764;2022-10-22T11:10:59;10.70;;;2.50;;
75048;SDS011;63803;53.120;8.764;2022-10-22T11:13:37;11.50;;;2.90;;
75048;SDS011;63803;53.120;8.764;2022-10-22T11:16:27;11.45;;;3.13;;
75048;SDS011;63803;53.120;8.764;2022-10-22T11:19:41;12.07;;;2.72;;
75048;SDS011;63803;53.120;8.764;2022-10-22T11:22:09;11.23;;;2.83;;
75048;SDS011;63803;53.120;8.764;2022-10-22T11:24:51;10.23;;;3.38;;
75048;SDS011;63803;53.120;8.764;2022-10-22T11:30:16;10.77;;;2.65;;
75048;SDS011;63803;53.120;8.764;2022-10-22T11:32:48;12.65;;;3.28;;
75048;SDS011;63803;53.120;8.764;2022-10-22T11:35:25;12.52;;;2.53;;
75048;SDS011;63803;53.120;8.764;2022-10-22T11:37:55;9.63;;;2.70;;
75048;SDS011;63803;53.120;8.764;2022-10-22T11:43:24;9.98;;;2.72;;
75048;SDS011;63803;53.120;8.764;2022-10-22T11:48:40;9.98;;;2.63;;
75048;SDS011;63803;53.120;8.764;2022-10-22T11:51:28;8.65;;;2.50;;
75048;SDS011;63803;53.120;8.764;2022-10-22T11:54:00;7.25;;;2.60;;
75048;SDS011;63803;53.120;8.764;2022-10-22T11:56:46;7.20;;;2.25;;
75048;SDS011;63803;53.120;8.764;2022-10-22T12:07:55;5.03;;;2.20;;
75048;SDS011;63803;53.120;8.764;2022-10-22T12:10:28;4.95;;;2.30;;
75048;SDS011;63803;53.120;8.764;2022-10-22T12:13:17;6.18;;;2.63;;
75048;SDS011;63803;53.120;8.764;2022-10-22T12:15:50;7.38;;;2.40;;
75048;SDS011;63803;53.120;8.764;2022-10-22T12:18:22;10.82;;;2.47;;
75048;SDS011;63803;53.120;8.764;2022-10-22T12:20:51;7.20;;;2.30;;
75048;SDS011;63803;53.120;8.764;2022-10-22T12:23:18;9.63;;;2.50;;
75048;SDS011;63803;53.120;8.764;2022-10-22T12:25:48;5.38;;;2.25;;
75048;SDS011;63803;53.120;8.764;2022-10-22T12:28:14;7.03;;;2.55;;
75048;SDS011;63803;53.120;8.764;2022-10-22T12:30:40;5.40;;;2.40;;
75048;SDS011;63803;53.120;8.764;2022-10-22T12:33:15;8.23;;;2.92;;
75048;SDS011;63803;53.120;8.764;2022-10-22T12:35:44;6.18;;;3.03;;
75048;SDS011;63803;53.120;8.764;2022-10-22T12:38:15;11.38;;;2.22;;
75048;SDS011;63803;53.120;8.764;2022-10-22T12:40:45;7.05;;;2.33;;
75048;SDS011;63803;53.120;8.764;2022-10-22T12:43:13;6.13;;;2.35;;
75048;SDS011;63803;53.120;8.764;2022-10-22T12:45:40;8.85;;;2.58;;
75048;SDS011;63803;53.120;8.764;2022-10-22T12:48:28;5.90;;;2.10;;
75048;SDS011;63803;53.120;8.764;2022-10-22T12:51:00;5.03;;;2.35;;
75048;SDS011;63803;53.120;8.764;2022-10-22T12:53:31;6.22;;;2.25;;
75048;SDS011;63803;53.120;8.764;2022-10-22T12:56:05;10.52;;;2.28;;
75048;SDS011;63803;53.120;8.764;2022-10-22T12:58:39;7.70;;;2.47;;
75048;SDS011;63803;53.120;8.764;2022-10-22T13:01:27;5.22;;;2.50;;
75048;SDS011;63803;53.120;8.764;2022-10-22T13:06:51;4.82;;;2.40;;
75048;SDS011;63803;53.120;8.764;2022-10-22T13:12:05;5.10;;;2.20;;
75048;SDS011;63803;53.120;8.764;2022-10-22T13:24:55;6.28;;;2.50;;
75048;SDS011;63803;53.120;8.764;2022-10-22T13:27:47;5.28;;;2.38;;
75048;SDS011;63803;53.120;8.764;2022-10-22T13:30:28;4.07;;;2.20;;
75048;SDS011;63803;53.120;8.764;2022-10-22T13:32:57;2.47;;;2.20;;
75048;SDS011;63803;53.120;8.764;2022-10-22T13:35:34;5.95;;;2.60;;
75048;SDS011;63803;53.120;8.764;2022-10-22T13:38:02;3.50;;;2.22;;
75048;SDS011;63803;53.120;8.764;2022-10-22T13:40:37;7.28;;;2.75;;
75048;SDS011;63803;53.120;8.764;2022-10-22T13:43:03;5.05;;;2.05;;
75048;SDS011;63803;53.120;8.764;2022-10-22T13:45:29;5.93;;;2.40;;
75048;SDS011;63803;53.120;8.764;2022-10-22T13:47:55;3.70;;;2.25;;
75048;SDS011;63803;53.120;8.764;2022-10-22T13:50:21;4.85;;;2.45;;
75048;SDS011;63803;53.120;8.764;2022-10-22T13:52:54;5.35;;;2.15;;
75048;SDS011;63803;53.120;8.764;2022-10-22T13:55:23;5.10;;;2.33;;
75048;SDS011;63803;53.120;8.764;2022-10-22T13:57:51;4.55;;;2.35;;
75048;SDS011;63803;53.120;8.764;2022-10-22T14:00:20;5.03;;;2.53;;
75048;SDS011;63803;53.120;8.764;2022-10-22T14:02:51;4.18;;;2.38;;
75048;SDS011;63803;53.120;8.764;2022-10-22T14:05:21;3.85;;;2.28;;
75048;SDS011;63803;53.120;8.764;2022-10-22T14:07:47;3.67;;;2.13;;
75048;SDS011;63803;53.120;8.764;2022-10-22T14:10:14;4.75;;;2.53;;
75048;SDS011;63803;53.120;8.764;2022-10-22T14:12:45;3.83;;;2.38;;
75048;SDS011;63803;53.120;8.764;2022-10-22T14:15:12;5.90;;;2.40;;
75048;SDS011;63803;53.120;8.764;2022-10-22T14:17:41;4.32;;;2.28;;
75048;SDS011;63803;53.120;8.764;2022-10-22T14:20:13;3.78;;;2.25;;
75048;SDS011;63803;53.120;8.764;2022-10-22T14:22:45;5.43;;;2.65;;
75048;SDS011;63803;53.120;8.764;2022-10-22T14:25:13;4.63;;;2.30;;
75048;SDS011;63803;53.120;8.764;2022-10-22T14:27:43;5.00;;;2.70;;
75048;SDS011;63803;53.120;8.764;2022-10-22T14:30:20;6.20;;;2.38;;
75048;SDS011;63803;53.120;8.764;2022-10-22T14:32:48;6.03;;;2.47;;
75048;SDS011;63803;53.120;8.764;2022-10-22T14:35:19;5.07;;;2.33;;
75048;SDS011;63803;53.120;8.764;2022-10-22T14:37:46;3.28;;;2.20;;
75048;SDS011;63803;53.120;8.764;2022-10-22T14:40:13;9.75;;;2.38;;
75048;SDS011;63803;53.120;8.764;2022-10-22T14:42:41;7.38;;;2.30;;
75048;SDS011;63803;53.120;8.764;2022-10-22T14:45:19;4.93;;;2.30;;
75048;SDS011;63803;53.120;8.764;2022-10-22T14:47:47;9.07;;;2.40;;
75048;SDS011;63803;53.120;8.764;2022-10-22T14:50:14;8.85;;;2.30;;
75048;SDS011;63803;53.120;8.764;2022-10-22T14:52:40;5.68;;;2.08;;
75048;SDS011;63803;53.120;8.764;2022-10-22T14:55:10;9.68;;;2.38;;
75048;SDS011;63803;53.120;8.764;2022-10-22T14:57:38;4.93;;;1.70;;
75048;SDS011;63803;53.120;8.764;2022-10-22T15:00:05;10.93;;;2.08;;
75048;SDS011;63803;53.120;8.764;2022-10-22T15:02:33;12.55;;;2.45;;
75048;SDS011;63803;53.120;8.764;2022-10-22T15:04:59;5.05;;;2.38;;
75048;SDS011;63803;53.120;8.764;2022-10-22T15:07:24;9.00;;;1.70;;
75048;SDS011;63803;53.120;8.764;2022-10-22T15:09:51;9.23;;;2.20;;
75048;SDS011;63803;53.120;8.764;2022-10-22T15:12:18;6.93;;;2.55;;
75048;SDS011;63803;53.120;8.764;2022-10-22T15:14:45;4.78;;;1.70;;
75048;SDS011;63803;53.120;8.764;2022-10-22T15:17:12;5.95;;;2.10;;
75048;SDS011;63803;53.120;8.764;2022-10-22T15:19:38;9.23;;;2.55;;
75048;SDS011;63803;53.120;8.764;2022-10-22T15:22:03;7.18;;;2.08;;
75048;SDS011;63803;53.120;8.764;2022-10-22T15:24:30;5.40;;;1.90;;
75048;SDS011;63803;53.120;8.764;2022-10-22T15:26:56;9.05;;;1.90;;
75048;SDS011;63803;53.120;8.764;2022-10-22T15:29:22;8.07;;;1.98;;
75048;SDS011;63803;53.120;8.764;2022-10-22T15:31:49;6.70;;;2.08;;
75048;SDS011;63803;53.120;8.764;2022-10-22T15:34:20;9.52;;;1.70;;
75048;SDS011;63803;53.120;8.764;2022-10-22T15:36:48;6.97;;;1.85;;
75048;SDS011;63803;53.120;8.764;2022-10-22T15:39:14;9.82;;;2.28;;
75048;SDS011;63803;53.120;8.764;2022-10-22T15:41:40;7.22;;;2.45;;
75048;SDS011;63803;53.120;8.764;2022-10-22T15:44:06;12.18;;;2.25;;
75048;SDS011;63803;53.120;8.764;2022-10-22T15:46:33;20.27;;;2.28;;
75048;SDS011;63803;53.120;8.764;2022-10-22T15:49:00;16.83;;;2.30;;
75048;SDS011;63803;53.120;8.764;2022-10-22T15:51:26;8.30;;;2.03;;
75048;SDS011;63803;53.120;8.764;2022-10-22T15:53:56;9.40;;;2.10;;
75048;SDS011;63803;53.120;8.764;2022-10-22T15:56:23;4.90;;;2.22;;
75048;SDS011;63803;53.120;8.764;2022-10-22T15:58:57;6.80;;;2.10;;
75048;SDS011;63803;53.120;8.764;2022-10-22T16:01:25;3.58;;;1.90;;
75048;SDS011;63803;53.120;8.764;2022-10-22T16:03:51;5.68;;;2.30;;
75048;SDS011;63803;53.120;8.764;2022-10-22T16:06:28;5.25;;;2.17;;
75048;SDS011;63803;53.120;8.764;2022-10-22T16:08:56;5.70;;;2.00;;
75048;SDS011;63803;53.120;8.764;2022-10-22T16:11:24;4.03;;;2.00;;
75048;SDS011;63803;53.120;8.764;2022-10-22T16:13:54;6.10;;;2.08;;
75048;SDS011;63803;53.120;8.764;2022-10-22T16:16:21;6.13;;;2.40;;
75048;SDS011;63803;53.120;8.764;2022-10-22T16:18:48;5.50;;;2.15;;
75048;SDS011;63803;53.120;8.764;2022-10-22T16:21:15;7.60;;;2.40;;
75048;SDS011;63803;53.120;8.764;2022-10-22T16:23:41;15.00;;;2.55;;
75048;SDS011;63803;53.120;8.764;2022-10-22T16:26:07;6.18;;;2.28;;
75048;SDS011;63803;53.120;8.764;2022-10-22T16:28:33;9.13;;;2.40;;
75048;SDS011;63803;53.120;8.764;2022-10-22T16:31:07;8.18;;;2.38;;
75048;SDS011;63803;53.120;8.764;2022-10-22T16:33:34;8.50;;;2.55;;
75048;SDS011;63803;53.120;8.764;2022-10-22T16:36:01;5.72;;;2.33;;
75048;SDS011;63803;53.120;8.764;2022-10-22T16:38:27;9.98;;;2.67;;
75048;SDS011;63803;53.120;8.764;2022-10-22T16:40:53;5.60;;;2.33;;
75048;SDS011;63803;53.120;8.764;2022-10-22T16:43:30;9.50;;;2.63;;
75048;SDS011;63803;53.120;8.764;2022-10-22T16:45:55;5.07;;;2.60;;
75048;SDS011;63803;53.120;8.764;2022-10-22T16:48:21;12.65;;;2.50;;
75048;SDS011;63803;53.120;8.764;2022-10-22T16:50:47;7.50;;;2.75;;
75048;SDS011;63803;53.120;8.764;2022-10-22T16:53:13;8.48;;;2.58;;
75048;SDS011;63803;53.120;8.764;2022-10-22T16:55:39;8.32;;;2.67;;
75048;SDS011;63803;53.120;8.764;2022-10-22T16:58:05;8.48;;;2.85;;
75048;SDS011;63803;53.120;8.764;2022-10-22T17:00:31;7.05;;;2.55;;
75048;SDS011;63803;53.120;8.764;2022-10-22T17:02:58;6.47;;;2.38;;
75048;SDS011;63803;53.120;8.764;2022-10-22T17:05:23;7.38;;;2.78;;